To NAV CANADA Home Page Login to a new session Search on AWWS site Feedback and Comments Disclaimer Vers la page française équivalente Tips FAQ What's new on the site To the Forecasts and Observations / NOTAM section To "File a Flight Plan" website Publications and other links Update of the User's profile FIC Telephone Numbers My Weather Data Folder Route Weather Data Regional Weather Data Local Weather Data To the Forecasts and Observations / NOTAM section
Request Generated 03/05/2015 at 23:57:31 UTC . Weather information available at that time is displayed.

METAR/TAF

SASKATOON/JOHN G. DIEFENBAKER INTL/SK    

METAR CYXE 052300Z 29011KT 15SM SCT250 M02/M09 A2996 RMK CI4 SLP186=
METAR CYXE 052200Z 30014KT 15SM BKN250 M02/M09 A2994 RMK CI5 SLP182=
METAR CYXE 052100Z 29011KT 15SM BKN250 M02/M09 A2994 RMK CI5 SLP180=

TAF CYXE 052338Z 0600/0624 30012G22KT P6SM SCT250
BECMG 0603/0605 VRB03KT
FM060900 20008KT P6SM BKN070 TEMPO 0609/0612 3SM -SN BKN040
FM061200 22010KT P6SM SCT008 BKN025 TEMPO 0612/0615 2SM -SN BR
OVC008 PROB30 0612/0615 3SM -FZRA BR
FM061500 30018G28KT P6SM BKN015 TEMPO 0615/0618 3SM -SN BR BKN008
BECMG 0622/0624 30012KT
RMK NXT FCST BY 060600Z=
Your time UTC time
Weather data provided by Environment Canada and NAV CANADA